Hlavní strana
METAR-TAF:

METAR-TAF

Letiště :

Letiště Fua'amotu

Tongatapu, Tonga

zeměpisná šířka: 21-14S, zeměpisná délka: 175-09W, výška: 38 m

Aktuální stav počasí

Zpráva byla vytvořena před 1 hodinou a 3 minutami, v 22:00 UTC
Východní vítr 8 kt
Teplota 25°C
Vlhkost vzduchu 79%
Tlak 1019 hPa
Viditelnost 10 km a více
Skoro jasno ve výšce 1200 ft
Skoro jasno ve výšce 2000 ft, Vertikální cumulus.

METAR: NFTF 182200Z 09008KT 9999 FEW012 FEW020TCU 25/21 Q1019

Čas: 12:03 (23:03 UTC)

Předpověď počasí

Zpráva byla vytvořena před 6 hodinami a 0 minutami, v 17:03 UTC
Předpověď platná od 18 v 18 UTC do 19 v 18 UTC
Východní vítr 8 kt
Viditelnost 10 km a více
Skoro jasno ve výšce 900 ft
Oblačno až skoro zataženo ve výšce 1700 ft
Pravděpodobnost 30% :
Dočasný
od 18 v 18 UTC do 18 v 24 UTC
Viditelnost: 5000 m
Oblačno až skoro zataženo ve výšce 1500 ft
dešťové přeháňky

TAF: NFTF 181703Z 1818/1918 09008KT 9999 FEW009 BKN017 PROB30 TEMPO 1818/1824 5000 SHRA BKN015

Stav a předpovědi počasí z více než 4 000 letišť (zprávy METAR a TAF).

Červené a žluté tečky na mapě představují dostupné meteorologické stanice.

Když kurzor umístíte na tečku, zobrazí se název stanice.

Pak kliknutím zobrazíte stav a předpověď počasí.

Chcete-li změnit mapu, kliknutím na zelené tlačítko se znaménkem +mapu přiblížíte, kliknutím na zelené tlačítko se znaménkem – mapu oddálíte a kliknutím na zelené šipky přejdete na sousední mapy.


METAR-TAF: